sensor_id;sensor_type;location;lat;lon;timestamp;temperature;humidity
9901;DHT22;4989;48.772;9.154;2023-04-24T00:03:54;12.20;97.70
9901;DHT22;4989;48.772;9.154;2023-04-24T00:08:56;12.30;97.50
9901;DHT22;4989;48.772;9.154;2023-04-24T00:13:59;12.40;97.20
9901;DHT22;4989;48.772;9.154;2023-04-24T00:19:01;12.40;96.80
9901;DHT22;4989;48.772;9.154;2023-04-24T00:24:03;12.50;96.60
9901;DHT22;4989;48.772;9.154;2023-04-24T00:29:06;12.50;96.40
9901;DHT22;4989;48.772;9.154;2023-04-24T00:34:08;12.50;96.30
9901;DHT22;4989;48.772;9.154;2023-04-24T00:39:10;12.60;96.00
9901;DHT22;4989;48.772;9.154;2023-04-24T00:44:12;12.60;96.00
9901;DHT22;4989;48.772;9.154;2023-04-24T00:49:14;12.60;95.50
9901;DHT22;4989;48.772;9.154;2023-04-24T00:54:17;12.70;95.80
9901;DHT22;4989;48.772;9.154;2023-04-24T00:59:20;12.70;95.70
9901;DHT22;4989;48.772;9.154;2023-04-24T01:04:22;12.60;95.40
9901;DHT22;4989;48.772;9.154;2023-04-24T01:09:25;12.60;95.40
9901;DHT22;4989;48.772;9.154;2023-04-24T01:14:28;12.60;95.70
9901;DHT22;4989;48.772;9.154;2023-04-24T01:19:30;12.70;95.60
9901;DHT22;4989;48.772;9.154;2023-04-24T01:24:32;12.80;95.40
9901;DHT22;4989;48.772;9.154;2023-04-24T01:29:35;12.80;95.50
9901;DHT22;4989;48.772;9.154;2023-04-24T01:34:38;12.60;96.20
9901;DHT22;4989;48.772;9.154;2023-04-24T01:39:41;12.60;96.90
9901;DHT22;4989;48.772;9.154;2023-04-24T01:44:45;12.50;97.30
9901;DHT22;4989;48.772;9.154;2023-04-24T01:49:50;12.50;97.10
9901;DHT22;4989;48.772;9.154;2023-04-24T01:54:52;12.60;97.00
9901;DHT22;4989;48.772;9.154;2023-04-24T01:59:55;12.40;97.40
9901;DHT22;4989;48.772;9.154;2023-04-24T02:04:57;12.50;97.10
9901;DHT22;4989;48.772;9.154;2023-04-24T02:09:59;12.60;97.10
9901;DHT22;4989;48.772;9.154;2023-04-24T02:15:02;12.60;97.00
9901;DHT22;4989;48.772;9.154;2023-04-24T02:20:06;12.50;97.10
9901;DHT22;4989;48.772;9.154;2023-04-24T02:25:09;12.70;97.00
9901;DHT22;4989;48.772;9.154;2023-04-24T02:30:12;12.80;96.80
9901;DHT22;4989;48.772;9.154;2023-04-24T02:35:15;12.30;97.40
9901;DHT22;4989;48.772;9.154;2023-04-24T02:40:17;12.30;97.70
9901;DHT22;4989;48.772;9.154;2023-04-24T02:45:19;12.50;98.00
9901;DHT22;4989;48.772;9.154;2023-04-24T02:50:22;12.70;98.40
9901;DHT22;4989;48.772;9.154;2023-04-24T02:55:24;12.80;98.40
9901;DHT22;4989;48.772;9.154;2023-04-24T03:00:26;12.60;99.00
9901;DHT22;4989;48.772;9.154;2023-04-24T03:05:29;12.80;98.90
9901;DHT22;4989;48.772;9.154;2023-04-24T03:10:33;12.50;98.90
9901;DHT22;4989;48.772;9.154;2023-04-24T03:15:35;12.50;99.30
9901;DHT22;4989;48.772;9.154;2023-04-24T03:20:37;12.10;99.90
9901;DHT22;4989;48.772;9.154;2023-04-24T03:25:39;12.10;99.90
9901;DHT22;4989;48.772;9.154;2023-04-24T03:30:43;12.30;99.90
9901;DHT22;4989;48.772;9.154;2023-04-24T03:35:46;11.80;99.90
9901;DHT22;4989;48.772;9.154;2023-04-24T03:40:48;11.90;99.90
9901;DHT22;4989;48.772;9.154;2023-04-24T03:46:11;12.10;99.90
9901;DHT22;4989;48.772;9.154;2023-04-24T03:51:18;12.30;99.60
9901;DHT22;4989;48.772;9.154;2023-04-24T03:56:23;12.30;99.50
9901;DHT22;4989;48.772;9.154;2023-04-24T04:01:27;12.30;99.40
9901;DHT22;4989;48.772;9.154;2023-04-24T04:06:37;11.70;99.90
9901;DHT22;4989;48.772;9.154;2023-04-24T04:11:40;11.70;99.90
9901;DHT22;4989;48.772;9.154;2023-04-24T04:16:42;11.50;99.90
9901;DHT22;4989;48.772;9.154;2023-04-24T04:21:45;11.70;99.90
9901;DHT22;4989;48.772;9.154;2023-04-24T04:27:08;11.60;99.90
9901;DHT22;4989;48.772;9.154;2023-04-24T04:32:19;12.00;99.90
9901;DHT22;4989;48.772;9.154;2023-04-24T04:37:21;12.20;99.90
9901;DHT22;4989;48.772;9.154;2023-04-24T04:42:44;11.90;99.30
9901;DHT22;4989;48.772;9.154;2023-04-24T04:47:48;11.50;98.30
9901;DHT22;4989;48.772;9.154;2023-04-24T04:52:51;11.40;99.40
9901;DHT22;4989;48.772;9.154;2023-04-24T04:58:00;11.20;99.20
9901;DHT22;4989;48.772;9.154;2023-04-24T05:03:03;11.10;99.90
9901;DHT22;4989;48.772;9.154;2023-04-24T05:08:21;11.00;99.90
9901;DHT22;4989;48.772;9.154;2023-04-24T05:13:29;11.10;99.50
9901;DHT22;4989;48.772;9.154;2023-04-24T05:18:51;11.00;99.80
9901;DHT22;4989;48.772;9.154;2023-04-24T05:24:01;11.20;99.70
9901;DHT22;4989;48.772;9.154;2023-04-24T05:29:29;11.30;99.00
9901;DHT22;4989;48.772;9.154;2023-04-24T05:34:35;11.10;99.10
9901;DHT22;4989;48.772;9.154;2023-04-24T05:39:37;11.00;99.50
9901;DHT22;4989;48.772;9.154;2023-04-24T05:44:39;11.00;99.80
9901;DHT22;4989;48.772;9.154;2023-04-24T05:49:42;11.10;99.70
9901;DHT22;4989;48.772;9.154;2023-04-24T05:54:44;11.10;99.70
9901;DHT22;4989;48.772;9.154;2023-04-24T05:59:51;11.30;99.30
9901;DHT22;4989;48.772;9.154;2023-04-24T06:04:55;11.30;99.70
9901;DHT22;4989;48.772;9.154;2023-04-24T06:09:59;11.20;99.80
9901;DHT22;4989;48.772;9.154;2023-04-24T06:15:05;11.50;98.60
9901;DHT22;4989;48.772;9.154;2023-04-24T06:20:29;11.20;98.40
9901;DHT22;4989;48.772;9.154;2023-04-24T06:25:31;11.10;98.80
9901;DHT22;4989;48.772;9.154;2023-04-24T06:30:34;11.70;98.50
9901;DHT22;4989;48.772;9.154;2023-04-24T06:35:36;12.00;96.80
9901;DHT22;4989;48.772;9.154;2023-04-24T06:40:40;12.40;95.70
9901;DHT22;4989;48.772;9.154;2023-04-24T06:45:42;13.00;95.20
9901;DHT22;4989;48.772;9.154;2023-04-24T06:50:45;12.70;93.60
9901;DHT22;4989;48.772;9.154;2023-04-24T06:55:48;12.70;93.10
9901;DHT22;4989;48.772;9.154;2023-04-24T07:00:51;13.50;91.00
9901;DHT22;4989;48.772;9.154;2023-04-24T07:05:54;13.80;92.30
9901;DHT22;4989;48.772;9.154;2023-04-24T07:10:57;13.30;90.10
9901;DHT22;4989;48.772;9.154;2023-04-24T07:15:59;13.40;90.70
9901;DHT22;4989;48.772;9.154;2023-04-24T07:21:02;13.40;90.90
9901;DHT22;4989;48.772;9.154;2023-04-24T07:26:04;13.30;92.50
9901;DHT22;4989;48.772;9.154;2023-04-24T07:31:09;13.70;87.40
9901;DHT22;4989;48.772;9.154;2023-04-24T07:36:13;13.40;85.10
9901;DHT22;4989;48.772;9.154;2023-04-24T07:41:20;13.60;83.50
9901;DHT22;4989;48.772;9.154;2023-04-24T07:46:25;14.60;80.10
9901;DHT22;4989;48.772;9.154;2023-04-24T07:51:32;15.40;84.20
9901;DHT22;4989;48.772;9.154;2023-04-24T07:56:40;16.20;78.20
9901;DHT22;4989;48.772;9.154;2023-04-24T08:01:44;14.50;72.40
9901;DHT22;4989;48.772;9.154;2023-04-24T08:06:50;14.00;70.80
9901;DHT22;4989;48.772;9.154;2023-04-24T08:11:52;13.80;70.50
9901;DHT22;4989;48.772;9.154;2023-04-24T08:16:55;13.10;71.90
9901;DHT22;4989;48.772;9.154;2023-04-24T08:22:02;13.90;70.00
9901;DHT22;4989;48.772;9.154;2023-04-24T08:27:05;14.20;70.50
9901;DHT22;4989;48.772;9.154;2023-04-24T08:32:08;14.80;68.20
9901;DHT22;4989;48.772;9.154;2023-04-24T08:37:10;14.90;69.30
9901;DHT22;4989;48.772;9.154;2023-04-24T08:42:13;14.20;68.90
9901;DHT22;4989;48.772;9.154;2023-04-24T08:47:16;14.40;67.10
9901;DHT22;4989;48.772;9.154;2023-04-24T08:52:20;14.10;76.60
9901;DHT22;4989;48.772;9.154;2023-04-24T08:57:25;13.90;74.00
9901;DHT22;4989;48.772;9.154;2023-04-24T09:02:28;15.00;74.30
9901;DHT22;4989;48.772;9.154;2023-04-24T09:07:32;15.40;77.90
9901;DHT22;4989;48.772;9.154;2023-04-24T09:12:37;15.70;72.90
9901;DHT22;4989;48.772;9.154;2023-04-24T09:17:39;15.10;67.80
9901;DHT22;4989;48.772;9.154;2023-04-24T09:22:42;14.60;79.80
9901;DHT22;4989;48.772;9.154;2023-04-24T09:27:46;14.50;72.90
9901;DHT22;4989;48.772;9.154;2023-04-24T09:32:49;13.50;78.70
9901;DHT22;4989;48.772;9.154;2023-04-24T09:37:51;13.30;80.40
9901;DHT22;4989;48.772;9.154;2023-04-24T09:42:55;12.90;80.30
9901;DHT22;4989;48.772;9.154;2023-04-24T09:48:03;13.00;77.20
9901;DHT22;4989;48.772;9.154;2023-04-24T09:53:06;13.90;77.90
9901;DHT22;4989;48.772;9.154;2023-04-24T09:58:12;13.50;73.20
9901;DHT22;4989;48.772;9.154;2023-04-24T10:03:15;13.40;77.50
9901;DHT22;4989;48.772;9.154;2023-04-24T10:08:20;13.60;71.40
9901;DHT22;4989;48.772;9.154;2023-04-24T10:13:22;13.50;69.70
9901;DHT22;4989;48.772;9.154;2023-04-24T10:18:26;14.50;67.80
9901;DHT22;4989;48.772;9.154;2023-04-24T10:23:30;16.60;59.30
9901;DHT22;4989;48.772;9.154;2023-04-24T10:28:33;17.80;55.70
9901;DHT22;4989;48.772;9.154;2023-04-24T10:33:42;19.40;49.90
9901;DHT22;4989;48.772;9.154;2023-04-24T10:38:46;16.60;54.10
9901;DHT22;4989;48.772;9.154;2023-04-24T10:44:10;15.40;56.90
9901;DHT22;4989;48.772;9.154;2023-04-24T10:49:13;15.30;59.00
9901;DHT22;4989;48.772;9.154;2023-04-24T10:54:27;14.80;60.80
9901;DHT22;4989;48.772;9.154;2023-04-24T10:59:44;15.00;59.20
9901;DHT22;4989;48.772;9.154;2023-04-24T11:04:51;14.90;60.50
9901;DHT22;4989;48.772;9.154;2023-04-24T11:09:58;14.50;61.50
9901;DHT22;4989;48.772;9.154;2023-04-24T11:15:03;14.20;63.30
9901;DHT22;4989;48.772;9.154;2023-04-24T11:20:10;14.10;62.70
9901;DHT22;4989;48.772;9.154;2023-04-24T11:25:30;13.40;63.40
9901;DHT22;4989;48.772;9.154;2023-04-24T11:30:34;13.90;62.50
9901;DHT22;4989;48.772;9.154;2023-04-24T11:35:40;16.80;61.30
9901;DHT22;4989;48.772;9.154;2023-04-24T11:40:42;17.20;55.00
9901;DHT22;4989;48.772;9.154;2023-04-24T11:45:48;15.10;58.30
9901;DHT22;4989;48.772;9.154;2023-04-24T11:50:50;14.00;60.30
9901;DHT22;4989;48.772;9.154;2023-04-24T11:55:53;13.40;63.30
9901;DHT22;4989;48.772;9.154;2023-04-24T12:00:56;13.50;67.30
9901;DHT22;4989;48.772;9.154;2023-04-24T12:06:10;15.20;64.90
9901;DHT22;4989;48.772;9.154;2023-04-24T12:11:16;16.30;61.30
9901;DHT22;4989;48.772;9.154;2023-04-24T12:16:19;15.80;58.50
9901;DHT22;4989;48.772;9.154;2023-04-24T12:21:22;14.40;61.40
9901;DHT22;4989;48.772;9.154;2023-04-24T12:26:27;13.80;63.00
9901;DHT22;4989;48.772;9.154;2023-04-24T12:31:29;13.80;65.80
9901;DHT22;4989;48.772;9.154;2023-04-24T12:36:35;14.10;61.80
9901;DHT22;4989;48.772;9.154;2023-04-24T12:41:37;14.40;61.10
9901;DHT22;4989;48.772;9.154;2023-04-24T12:46:40;15.30;59.70
9901;DHT22;4989;48.772;9.154;2023-04-24T12:51:42;14.80;59.60
9901;DHT22;4989;48.772;9.154;2023-04-24T12:56:44;13.80;61.80
9901;DHT22;4989;48.772;9.154;2023-04-24T13:01:46;13.90;61.90
9901;DHT22;4989;48.772;9.154;2023-04-24T13:06:48;13.80;62.90
9901;DHT22;4989;48.772;9.154;2023-04-24T13:11:50;13.20;70.40
9901;DHT22;4989;48.772;9.154;2023-04-24T13:16:53;13.20;73.00
9901;DHT22;4989;48.772;9.154;2023-04-24T13:21:56;13.20;73.90
9901;DHT22;4989;48.772;9.154;2023-04-24T13:26:59;13.90;72.80
9901;DHT22;4989;48.772;9.154;2023-04-24T13:32:02;14.10;70.80
9901;DHT22;4989;48.772;9.154;2023-04-24T13:37:05;13.80;71.50
9901;DHT22;4989;48.772;9.154;2023-04-24T13:42:08;13.70;70.40
9901;DHT22;4989;48.772;9.154;2023-04-24T13:47:11;13.10;72.70
9901;DHT22;4989;48.772;9.154;2023-04-24T13:52:13;13.40;72.70
9901;DHT22;4989;48.772;9.154;2023-04-24T13:57:16;12.60;79.00
9901;DHT22;4989;48.772;9.154;2023-04-24T14:02:18;12.10;86.30
9901;DHT22;4989;48.772;9.154;2023-04-24T14:07:21;13.30;88.50
9901;DHT22;4989;48.772;9.154;2023-04-24T14:12:23;13.80;83.00
9901;DHT22;4989;48.772;9.154;2023-04-24T14:17:26;13.40;83.60
9901;DHT22;4989;48.772;9.154;2023-04-24T14:22:28;14.20;82.60
9901;DHT22;4989;48.772;9.154;2023-04-24T14:27:31;15.00;79.00
9901;DHT22;4989;48.772;9.154;2023-04-24T14:32:38;14.10;78.10
9901;DHT22;4989;48.772;9.154;2023-04-24T14:37:41;16.20;74.40
9901;DHT22;4989;48.772;9.154;2023-04-24T14:42:44;16.20;70.50
9901;DHT22;4989;48.772;9.154;2023-04-24T14:47:47;14.80;70.40
9901;DHT22;4989;48.772;9.154;2023-04-24T14:52:49;13.60;73.50
9901;DHT22;4989;48.772;9.154;2023-04-24T14:57:52;13.50;74.20
9901;DHT22;4989;48.772;9.154;2023-04-24T15:02:55;14.20;73.80
9901;DHT22;4989;48.772;9.154;2023-04-24T15:07:57;15.60;69.10
9901;DHT22;4989;48.772;9.154;2023-04-24T15:12:59;14.10;69.90
9901;DHT22;4989;48.772;9.154;2023-04-24T15:18:02;13.40;72.50
9901;DHT22;4989;48.772;9.154;2023-04-24T15:23:10;13.30;71.50
9901;DHT22;4989;48.772;9.154;2023-04-24T15:28:12;13.00;73.30
9901;DHT22;4989;48.772;9.154;2023-04-24T15:33:15;13.20;73.40
9901;DHT22;4989;48.772;9.154;2023-04-24T15:38:17;13.70;73.60
9901;DHT22;4989;48.772;9.154;2023-04-24T15:43:19;14.00;79.80
9901;DHT22;4989;48.772;9.154;2023-04-24T15:48:22;13.20;80.50
9901;DHT22;4989;48.772;9.154;2023-04-24T15:53:24;12.70;82.90
9901;DHT22;4989;48.772;9.154;2023-04-24T15:58:27;12.70;83.90
9901;DHT22;4989;48.772;9.154;2023-04-24T16:03:29;12.40;87.40
9901;DHT22;4989;48.772;9.154;2023-04-24T16:08:32;12.70;88.10
9901;DHT22;4989;48.772;9.154;2023-04-24T16:13:34;12.70;88.20
9901;DHT22;4989;48.772;9.154;2023-04-24T16:18:36;12.80;88.30
9901;DHT22;4989;48.772;9.154;2023-04-24T16:23:38;13.30;85.90
9901;DHT22;4989;48.772;9.154;2023-04-24T16:28:40;13.30;84.10
9901;DHT22;4989;48.772;9.154;2023-04-24T16:33:44;13.20;84.40
9901;DHT22;4989;48.772;9.154;2023-04-24T16:38:46;12.90;83.20
9901;DHT22;4989;48.772;9.154;2023-04-24T16:43:54;13.00;82.90
9901;DHT22;4989;48.772;9.154;2023-04-24T16:48:57;13.10;83.00
9901;DHT22;4989;48.772;9.154;2023-04-24T16:53:59;13.10;80.90
9901;DHT22;4989;48.772;9.154;2023-04-24T16:59:01;13.30;79.00
9901;DHT22;4989;48.772;9.154;2023-04-24T17:04:04;13.80;77.50
9901;DHT22;4989;48.772;9.154;2023-04-24T17:09:06;14.20;76.80
9901;DHT22;4989;48.772;9.154;2023-04-24T17:14:09;14.20;72.90
9901;DHT22;4989;48.772;9.154;2023-04-24T17:19:11;14.30;75.30
9901;DHT22;4989;48.772;9.154;2023-04-24T17:24:13;14.30;71.50
9901;DHT22;4989;48.772;9.154;2023-04-24T17:29:15;14.60;70.30
9901;DHT22;4989;48.772;9.154;2023-04-24T17:34:18;14.60;67.20
9901;DHT22;4989;48.772;9.154;2023-04-24T17:39:20;14.20;69.30
9901;DHT22;4989;48.772;9.154;2023-04-24T17:44:22;14.10;68.40
9901;DHT22;4989;48.772;9.154;2023-04-24T17:49:25;13.70;68.80
9901;DHT22;4989;48.772;9.154;2023-04-24T17:54:27;13.60;69.00
9901;DHT22;4989;48.772;9.154;2023-04-24T17:59:30;13.60;68.80
9901;DHT22;4989;48.772;9.154;2023-04-24T18:04:32;13.70;68.50
9901;DHT22;4989;48.772;9.154;2023-04-24T18:09:34;13.70;69.10
9901;DHT22;4989;48.772;9.154;2023-04-24T18:14:37;14.00;68.10
9901;DHT22;4989;48.772;9.154;2023-04-24T18:19:39;13.80;71.40
9901;DHT22;4989;48.772;9.154;2023-04-24T18:24:41;13.90;68.80
9901;DHT22;4989;48.772;9.154;2023-04-24T18:29:43;13.50;69.70
9901;DHT22;4989;48.772;9.154;2023-04-24T18:34:45;13.50;70.00
9901;DHT22;4989;48.772;9.154;2023-04-24T18:39:48;13.60;69.90
9901;DHT22;4989;48.772;9.154;2023-04-24T18:44:51;13.60;69.40
9901;DHT22;4989;48.772;9.154;2023-04-24T18:49:53;13.80;69.50
9901;DHT22;4989;48.772;9.154;2023-04-24T18:54:56;13.80;69.50
9901;DHT22;4989;48.772;9.154;2023-04-24T18:59:58;13.80;69.50
9901;DHT22;4989;48.772;9.154;2023-04-24T19:05:01;13.80;70.00
9901;DHT22;4989;48.772;9.154;2023-04-24T19:10:04;13.60;70.40
9901;DHT22;4989;48.772;9.154;2023-04-24T19:15:07;13.60;70.50
9901;DHT22;4989;48.772;9.154;2023-04-24T19:20:13;13.60;70.80
9901;DHT22;4989;48.772;9.154;2023-04-24T19:25:15;13.60;70.00
9901;DHT22;4989;48.772;9.154;2023-04-24T19:30:18;13.60;71.30
9901;DHT22;4989;48.772;9.154;2023-04-24T19:35:20;13.30;73.50
9901;DHT22;4989;48.772;9.154;2023-04-24T19:40:23;13.20;73.20
9901;DHT22;4989;48.772;9.154;2023-04-24T19:45:25;12.70;74.90
9901;DHT22;4989;48.772;9.154;2023-04-24T19:50:27;12.50;76.10
9901;DHT22;4989;48.772;9.154;2023-04-24T19:55:29;12.50;76.50
9901;DHT22;4989;48.772;9.154;2023-04-24T20:00:32;12.10;76.30
9901;DHT22;4989;48.772;9.154;2023-04-24T20:05:35;11.90;77.00
9901;DHT22;4989;48.772;9.154;2023-04-24T20:10:38;11.80;77.70
9901;DHT22;4989;48.772;9.154;2023-04-24T20:15:40;11.80;77.80
9901;DHT22;4989;48.772;9.154;2023-04-24T20:20:44;11.90;78.20
9901;DHT22;4989;48.772;9.154;2023-04-24T20:25:47;11.60;79.70
9901;DHT22;4989;48.772;9.154;2023-04-24T20:30:49;11.50;79.70
9901;DHT22;4989;48.772;9.154;2023-04-24T20:35:52;11.60;79.80
9901;DHT22;4989;48.772;9.154;2023-04-24T20:40:55;11.80;79.60
9901;DHT22;4989;48.772;9.154;2023-04-24T20:45:59;11.80;79.40
9901;DHT22;4989;48.772;9.154;2023-04-24T20:51:01;11.80;79.30
9901;DHT22;4989;48.772;9.154;2023-04-24T20:56:04;11.70;80.40
9901;DHT22;4989;48.772;9.154;2023-04-24T21:01:07;11.50;80.70
9901;DHT22;4989;48.772;9.154;2023-04-24T21:06:09;11.40;81.60
9901;DHT22;4989;48.772;9.154;2023-04-24T21:11:11;11.40;81.90
9901;DHT22;4989;48.772;9.154;2023-04-24T21:16:14;11.30;82.30
9901;DHT22;4989;48.772;9.154;2023-04-24T21:21:16;11.40;82.00
9901;DHT22;4989;48.772;9.154;2023-04-24T21:26:19;11.20;83.30
9901;DHT22;4989;48.772;9.154;2023-04-24T21:31:22;11.20;83.30
9901;DHT22;4989;48.772;9.154;2023-04-24T21:36:24;11.00;83.80
9901;DHT22;4989;48.772;9.154;2023-04-24T21:41:27;10.90;84.00
9901;DHT22;4989;48.772;9.154;2023-04-24T21:46:29;11.00;85.90
9901;DHT22;4989;48.772;9.154;2023-04-24T21:51:32;11.20;85.40
9901;DHT22;4989;48.772;9.154;2023-04-24T21:56:34;10.80;85.30
9901;DHT22;4989;48.772;9.154;2023-04-24T22:01:37;10.70;85.60
9901;DHT22;4989;48.772;9.154;2023-04-24T22:06:39;11.10;85.90
9901;DHT22;4989;48.772;9.154;2023-04-24T22:11:42;11.50;85.50
9901;DHT22;4989;48.772;9.154;2023-04-24T22:16:45;11.30;83.60
9901;DHT22;4989;48.772;9.154;2023-04-24T22:21:48;10.90;84.60
9901;DHT22;4989;48.772;9.154;2023-04-24T22:26:51;11.20;87.10
9901;DHT22;4989;48.772;9.154;2023-04-24T22:31:54;11.60;84.60
9901;DHT22;4989;48.772;9.154;2023-04-24T22:36:57;12.00;81.80
9901;DHT22;4989;48.772;9.154;2023-04-24T22:42:01;11.70;83.10
9901;DHT22;4989;48.772;9.154;2023-04-24T22:47:03;11.40;81.80
9901;DHT22;4989;48.772;9.154;2023-04-24T22:52:09;11.30;82.00
9901;DHT22;4989;48.772;9.154;2023-04-24T22:57:11;11.20;82.10
9901;DHT22;4989;48.772;9.154;2023-04-24T23:02:14;11.10;82.90
9901;DHT22;4989;48.772;9.154;2023-04-24T23:07:17;10.90;84.10
9901;DHT22;4989;48.772;9.154;2023-04-24T23:12:20;11.10;83.20
9901;DHT22;4989;48.772;9.154;2023-04-24T23:17:22;11.10;84.20
9901;DHT22;4989;48.772;9.154;2023-04-24T23:22:24;11.10;83.10
9901;DHT22;4989;48.772;9.154;2023-04-24T23:27:28;10.80;83.60
9901;DHT22;4989;48.772;9.154;2023-04-24T23:32:30;10.80;83.90
9901;DHT22;4989;48.772;9.154;2023-04-24T23:37:32;10.70;84.10
9901;DHT22;4989;48.772;9.154;2023-04-24T23:42:35;10.60;84.40
9901;DHT22;4989;48.772;9.154;2023-04-24T23:47:37;10.60;84.40
9901;DHT22;4989;48.772;9.154;2023-04-24T23:52:40;11.00;83.40
9901;DHT22;4989;48.772;9.154;2023-04-24T23:57:42;10.70;83.30
